Latest Weather Observations for Campbelltown

IDN60801

Issued at 9:22 pm EST Wednesday 5 August 2020 (issued every 10 minutes, with the page automatically refreshed every 10 minutes)

About weather observations | Map of weather stations | Latest weather observations for NSW | Other Formats
Station Details ID: 068257 Name: CAMPBELLTOWN (MOUNT ANNAN) Lat: -34.06 Lon: 150.77 Height: 112.0 m
Data from the previous 72 hours. | See also: Recent months at Campbelltown
Date/Time
EST
Temp
°C
App
Temp
°C
Dew
Point
°C
Rel
Hum
%
Delta-T
°C
Wind Press
QNH
hPa
Press
MSL
hPa
Rain since
9am
mm
Dir  Spd
km/h
Gust
km/h
Spd
kts
Gust
kts
05/09:00pm 8.0 4.2 -0.7 54 3.4 WSW 9 17 5 9 - - 0.0
05/08:30pm 7.8 4.1 -2.5 48 3.8 WSW 7 13 4 7 - - 0.0
05/08:00pm 9.0 4.9 -2.9 43 4.4 W 9 17 5 9 - - 0.0
05/07:30pm 10.0 5.9 -3.3 39 5.0 WNW 9 15 5 8 - - 0.0
05/07:00pm 10.5 6.3 -3.9 36 5.3 NW 9 15 5 8 - - 0.0
05/06:30pm 11.2 7.0 -4.1 34 5.7 W 9 20 5 11 - - 0.0
05/06:00pm 11.8 6.8 -4.3 32 6.0 W 13 26 7 14 - - 0.0
05/05:30pm 11.9 6.9 -4.2 32 6.0 W 13 24 7 13 - - 0.0
05/05:00pm 13.0 7.5 -5.1 28 6.7 W 15 26 8 14 - - 0.0
05/04:30pm 14.5 9.5 -4.7 26 7.3 WSW 13 24 7 13 - - 0.0
05/04:00pm 15.4 10.8 -4.5 25 7.7 W 11 20 6 11 - - 0.0
05/03:30pm 15.8 10.8 -4.7 24 7.9 W 13 26 7 14 - - 0.0
05/03:00pm 15.9 10.2 -4.1 25 7.8 W 17 30 9 16 - - 0.0
05/02:30pm 16.0 10.6 -4.5 24 8.0 WNW 15 28 8 15 - - 0.0
05/02:00pm 15.7 10.0 -3.7 26 7.7 W 17 35 9 19 - - 0.0
05/01:30pm 15.4 9.2 -3.0 28 7.4 W 20 32 11 17 - - 0.0
05/01:00pm 14.9 8.8 -2.5 30 7.0 W 20 30 11 16 - - 0.0
05/12:30pm 14.8 8.8 -1.7 32 6.7 W 20 39 11 21 - - 0.0
05/12:00pm 14.4 8.9 -2.1 32 6.7 WSW 17 35 9 19 - - 0.0
05/11:30am 14.4 9.0 -1.2 34 6.4 WSW 17 28 9 15 - - 0.0
05/11:00am 13.3 8.1 -3.0 32 6.4 W 15 28 8 15 - - 0.0
05/10:30am 12.7 8.0 -1.6 37 5.7 WNW 13 24 7 13 - - 0.0
05/10:00am 11.8 7.3 -3.1 35 5.7 NW 11 19 6 10 - - 0.0
05/09:30am 11.1 7.2 -1.6 41 5.0 WNW 9 13 5 7 - - 0.0
05/09:00am 9.7 5.0 -1.9 44 4.5 W 13 20 7 11 - - 0.0
05/08:30am 8.2 4.0 -1.1 52 3.6 WSW 11 24 6 13 - - 0.0
05/08:00am 4.6 1.9 2.5 86 0.9 NW 6 9 3 5 - - 0.0
05/07:30am 0.5 -1.9 -0.5 93 0.4 WNW 2 7 1 4 - - 0.0
05/07:00am -0.3 -2.9 -1.6 91 0.4 WNW 2 7 1 4 - - 0.0
05/06:30am 0.3 -1.9 -1.4 88 0.6 CALM 0 0 0 0 - - 0.0
05/06:00am 0.8 -1.4 -1.3 86 0.7 CALM 0 6 0 3 - - 0.0
05/05:30am 1.6 -0.6 -1.8 78 1.2 CALM 0 0 0 0 - - 0.0
05/05:00am 3.5 1.2 -2.0 67 2.0 CALM 0 0 0 0 - - 0.0
05/04:30am 5.4 1.8 -2.2 58 2.8 NW 7 11 4 6 - - 0.0
05/04:00am 6.2 2.2 -1.9 56 3.0 W 9 17 5 9 - - 0.0
05/03:30am 5.3 1.4 -1.8 60 2.6 SW 9 15 5 8 - - 0.0
05/03:00am 4.9 1.5 -2.0 61 2.5 SSW 6 9 3 5 - - 0.0
05/02:30am 5.2 1.5 -2.6 57 2.8 SW 7 13 4 7 - - 0.0
05/02:00am 5.7 2.0 -2.6 55 3.0 SW 7 13 4 7 - - 0.0
05/01:30am 5.9 2.2 -2.7 54 3.1 W 7 11 4 6 - - 0.0
05/01:00am 6.2 2.1 -3.4 50 3.4 WSW 9 15 5 8 - - 0.0
05/12:30am 6.4 2.6 -3.8 48 3.6 W 7 9 4 5 - - 0.0
05/12:00am 6.8 3.0 -4.0 46 3.8 WSW 7 15 4 8 - - 0.0
 
Date/Time
EST
Temp
°C
App
Temp
°C
Dew
Point
°C
Rel
Hum
%
Delta-T
°C
Wind Press
QNH
hPa
Press
MSL
hPa
Rain since
9am
mm
Dir  Spd
km/h
Gust
km/h
Spd
kts
Gust
kts
04/11:30pm 7.1 3.8 -4.3 44 4.0 W 4 9 2 5 - - 0.0
04/11:00pm 8.1 4.2 -4.3 41 4.4 SW 7 13 4 7 - - 0.0
04/10:30pm 8.2 4.4 -3.9 42 4.4 SW 7 13 4 7 - - 0.0
04/10:00pm 8.1 4.2 -4.3 41 4.4 SW 7 11 4 6 - - 0.0
04/09:30pm 9.7 5.5 -4.3 37 5.1 SW 9 15 5 8 - - 0.0
04/09:00pm 10.4 5.3 -4.8 34 5.5 SW 13 20 7 11 - - 0.0
04/08:30pm 11.2 5.8 -4.9 32 5.9 SSW 15 32 8 17 - - 0.0
04/08:00pm 11.3 6.9 -2.5 38 5.3 SSW 11 19 6 10 - - 0.0
04/07:30pm 12.1 7.8 0.8 46 4.8 SW 13 22 7 12 - - 0.0
04/07:00pm 13.1 8.4 1.1 44 5.1 SW 15 24 8 13 - - 0.0
04/06:30pm 13.9 10.3 3.1 48 4.9 SW 11 22 6 12 - - 0.0
04/06:00pm 14.9 11.3 2.8 44 5.5 W 11 20 6 11 - - 0.0
04/05:30pm 15.6 11.5 2.4 41 5.9 W 13 26 7 14 - - 0.0
04/05:00pm 16.5 12.4 2.2 38 6.4 WSW 13 26 7 14 - - 0.0
04/04:30pm 18.0 12.7 1.9 34 7.3 WSW 19 35 10 19 - - 0.0
04/04:00pm 19.1 13.6 2.0 32 7.8 WSW 20 33 11 18 - - 0.0
04/03:30pm 19.7 14.2 0.7 28 8.5 W 19 32 10 17 - - 0.0
04/03:00pm 20.9 15.6 1.7 28 8.9 W 19 35 10 19 - - 0.0
04/02:30pm 21.4 17.4 2.6 29 8.9 NW 13 26 7 14 - - 0.0
04/02:00pm 17.9 16.9 7.3 50 5.4 N 2 7 1 4 - - 0.0
04/01:30pm 17.5 15.6 6.7 49 5.4 N 6 9 3 5 - - 0.0
04/01:00pm 17.1 14.4 7.2 52 5.0 NNW 11 13 6 7 - - 0.0
04/12:30pm 17.3 15.3 6.2 48 5.5 NNW 6 9 3 5 - - 0.0
04/12:00pm 17.4 15.1 5.7 46 5.7 NNW 7 11 4 6 - - 0.0
04/11:30am 16.7 14.5 6.2 50 5.2 N 7 13 4 7 - - 0.0
04/11:00am 16.5 13.8 5.8 49 5.2 NNE 9 13 5 7 - - 0.0
04/10:30am 16.5 13.8 5.8 49 5.2 NNE 9 13 5 7 - - 0.0
04/10:00am 14.4 12.1 5.7 56 4.2 N 7 11 4 6 - - 0.0
04/09:30am 12.6 9.8 5.3 61 3.4 N 9 13 5 7 - - 0.0
04/09:00am 10.7 8.4 5.7 71 2.3 NNE 7 11 4 6 - - 0.2
04/08:30am 7.5 6.9 7.4 99 0.0 CALM 0 0 0 0 - - 0.2
04/08:00am 4.7 3.5 4.7 100 0.0 CALM 0 0 0 0 - - 0.0
04/07:30am 1.8 -1.0 1.8 100 0.0 SSW 6 7 3 4 - - 0.0
04/07:00am 1.0 -1.2 0.9 99 0.0 SSW 2 7 1 4 - - 0.0
04/06:30am 1.3 -0.5 1.2 99 0.0 CALM 0 0 0 0 - - 0.0
04/06:00am 1.6 -0.2 1.5 99 0.0 CALM 0 0 0 0 - - 0.0
04/05:30am 1.9 0.2 1.6 98 0.1 CALM 0 0 0 0 - - 0.0
04/05:00am 1.9 -1.0 1.6 98 0.1 SSW 6 7 3 4 - - 0.0
04/04:30am 2.5 0.9 2.2 98 0.1 CALM 0 0 0 0 - - 0.0
04/04:00am 2.3 0.6 1.9 97 0.2 CALM 0 0 0 0 - - 0.0
04/03:30am 3.0 1.4 2.6 97 0.2 CALM 0 0 0 0 - - 0.0
04/03:00am 3.5 2.0 2.9 96 0.2 CALM 0 0 0 0 - - 0.0
04/02:30am 3.6 2.1 2.9 95 0.3 CALM 0 0 0 0 - - 0.0
04/02:00am 4.3 2.1 3.6 95 0.3 SSW 4 7 2 4 - - 0.0
04/01:30am 4.2 2.8 3.3 94 0.4 CALM 0 0 0 0 - - 0.0
04/01:00am 4.2 2.7 3.0 92 0.5 CALM 0 0 0 0 - - 0.0
04/12:30am 4.7 3.2 3.0 89 0.7 CALM 0 0 0 0 - - 0.0
04/12:00am 5.3 3.8 3.2 86 0.9 CALM 0 0 0 0 - - 0.0
 
Date/Time
EST
Temp
°C
App
Temp
°C
Dew
Point
°C
Rel
Hum
%
Delta-T
°C
Wind Press
QNH
hPa
Press
MSL
hPa
Rain since
9am
mm
Dir  Spd
km/h
Gust
km/h
Spd
kts
Gust
kts
03/11:30pm 6.2 4.8 3.5 83 1.1 CALM 0 0 0 0 - - 0.0
03/11:00pm 7.0 5.7 4.0 81 1.3 CALM 0 0 0 0 - - 0.0
03/10:30pm 7.6 5.2 4.2 79 1.5 SSW 6 9 3 5 - - 0.0
03/10:00pm 7.5 6.2 3.9 78 1.6 CALM 0 0 0 0 - - 0.0
03/09:30pm 8.9 6.3 4.1 72 2.1 SW 7 9 4 5 - - 0.0
03/09:00pm 8.2 6.9 4.0 75 1.8 CALM 0 0 0 0 - - 0.0
03/08:30pm 7.8 5.7 3.8 76 1.7 WNW 4 6 2 3 - - 0.0
03/08:00pm 8.7 7.5 4.7 76 1.8 CALM 0 7 0 4 - - 0.0
03/07:30pm 9.3 8.3 5.7 78 1.7 CALM 0 0 0 0 - - 0.0
03/07:00pm 10.0 9.2 6.5 79 1.6 CALM 0 0 0 0 - - 0.0
03/06:30pm 10.4 9.7 6.9 79 1.7 CALM 0 0 0 0 - - 0.0
03/06:00pm 10.9 10.3 7.2 78 1.8 CALM 0 0 0 0 - - 0.0
03/05:30pm 11.9 11.2 6.8 71 2.4 CALM 0 0 0 0 - - 0.0
03/05:00pm 14.6 13.9 6.9 60 3.8 CALM 0 0 0 0 - - 0.0
03/04:30pm 17.5 15.5 6.4 48 5.5 NNW 6 11 3 6 - - 0.0
03/04:00pm 18.1 15.4 5.7 44 6.1 NNW 9 11 5 6 - - 0.0
03/03:30pm 19.2 16.7 4.9 39 7.0 N 7 9 4 5 - - 0.0
03/03:00pm 20.1 17.5 4.2 35 7.7 N 7 11 4 6 - - 0.0
03/02:30pm 20.0 16.8 2.8 32 8.1 N 9 13 5 7 - - 0.0
03/02:00pm 20.2 16.8 1.6 29 8.5 NNW 9 15 5 8 - - 0.0
03/01:30pm 20.1 17.2 2.5 31 8.2 NNW 7 13 4 7 - - 0.0
03/01:00pm 19.3 16.5 5.0 39 7.0 N 9 15 5 8 - - 0.0
03/12:30pm 18.9 16.7 6.1 43 6.4 NNW 7 13 4 7 - - 0.0
03/12:00pm 18.2 14.9 2.5 35 7.2 NNW 9 13 5 7 - - 0.0
03/11:30am 17.0 14.1 2.6 38 6.6 NNW 7 11 4 6 - - 0.0
03/11:00am 16.4 14.0 4.4 45 5.7 SW 6 7 3 4 - - 0.0
03/10:30am 13.9 11.0 2.8 47 5.0 SSW 7 11 4 6 - - 0.0
03/10:00am 13.2 11.3 5.1 58 3.8 SSE 4 9 2 5 - - 0.0
03/09:30am 11.1 9.0 5.6 69 2.6 S 6 7 3 4 - - 0.0
03/09:00am 8.6 6.9 5.9 83 1.2 S 4 7 2 4 - - 0.2
03/08:30am 6.3 4.3 6.2 99 0.0 SSW 6 7 3 4 - - 0.2
03/08:00am 4.1 2.8 4.1 100 0.0 CALM 0 0 0 0 - - 0.2
03/07:30am 1.9 -0.5 1.9 100 0.0 SSW 4 6 2 3 - - 0.2
03/07:00am 1.3 -0.5 1.2 99 0.0 CALM 0 0 0 0 - - 0.2
03/06:30am 1.9 0.2 1.8 99 0.0 CALM 0 0 0 0 - - 0.2
03/06:00am 2.5 0.9 2.4 99 0.0 CALM 0 0 0 0 - - 0.2
03/05:30am 2.5 0.9 2.4 99 0.0 CALM 0 0 0 0 - - 0.2
03/05:00am 3.2 1.7 3.1 99 0.0 CALM 0 0 0 0 - - 0.2
03/04:30am 3.7 1.2 3.6 99 0.0 SSW 6 9 3 5 - - 0.2
03/04:00am 4.0 2.3 3.9 99 0.0 S 2 7 1 4 - - 0.2
03/03:30am 5.1 2.3 5.0 99 0.0 S 9 13 5 7 - - 0.2
03/03:00am 4.1 2.7 3.8 98 0.1 CALM 0 0 0 0 - - 0.2
03/02:30am 4.0 2.2 3.7 98 0.1 SSW 2 11 1 6 - - 0.2
03/02:00am 3.8 1.2 3.4 97 0.2 S 6 9 3 5 - - 0.2
03/01:30am 4.6 3.3 4.2 97 0.2 CALM 0 6 0 3 - - 0.2
03/01:00am 5.8 4.8 5.4 97 0.2 CALM 0 6 0 3 - - 0.2
03/12:30am 6.6 4.0 6.2 97 0.2 S 9 11 5 6 - - 0.2
03/12:00am 6.3 4.0 5.9 97 0.2 S 7 9 4 5 - - 0.2
 
Date/Time
EST
Temp
°C
App
Temp
°C
Dew
Point
°C
Rel
Hum
%
Delta-T
°C
Wind Press
QNH
hPa
Press
MSL
hPa
Rain since
9am
mm
Dir  Spd
km/h
Gust
km/h
Spd
kts
Gust
kts
02/11:30pm 6.0 3.7 5.6 97 0.2 SSW 7 7 4 4 - - 0.2
02/11:00pm 6.8 4.3 6.4 97 0.2 SSW 9 11 5 6 - - 0.2
02/10:30pm 6.6 5.7 6.0 96 0.3 CALM 0 0 0 0 - - 0.2
02/10:00pm 7.1 6.3 6.7 97 0.2 CALM 0 0 0 0 - - 0.2
02/09:30pm 7.2 5.3 6.6 96 0.3 S 6 6 3 3 - - 0.2

Other formats

Comma delimited format used in spreadsheet applications
http://www.bom.gov.au/fwo/IDN60801/IDN60801.94757.axf

JavaScript Object Notation format (JSON) in row-major order
http://www.bom.gov.au/fwo/IDN60801/IDN60801.94757.json

Data quality

Most of these data are generated automatically and are frequently updated. Quality checks on data are not normally performed. It is possible for incorrect values to appear. Refer to information at About Latest Weather Observations and please check the disclaimer before using these data.